Time;durP1;ratioP1;P1;durP2;ratioP2;P2;SDS_P1;SDS_P2;PMS_P1;PMS_P2;Temp;Humidity;BMP_temperature;BMP_pressure;BME280_temperature;BME280_humidity;BME280_pressure;Samples;Min_cycle;Max_cycle;Signal;HPM_P1;HPM_P2
2021/07/17 00:02:13;;;;;;;;;;;;;;;20.34;100.00;101168.31;5071556;28;19989;-70
2021/07/17 00:04:39;;;;;;;;;;;;;;;20.33;100.00;101152.78;5071159;28;20358;-70
2021/07/17 00:07:05;;;;;;;;;;;;;;;20.31;100.00;101157.59;5070110;28;20158;-71
2021/07/17 00:09:33;;;;;;;;;;;;;;;20.29;100.00;101152.28;5071362;28;20032;-70
2021/07/17 00:11:59;;;;;;;;;;;;;;;20.26;100.00;101147.13;5071677;28;19956;-70
2021/07/17 00:14:27;;;;;;;;;;;;;;;20.20;100.00;101158.84;5071407;28;20356;-71
2021/07/17 00:16:53;;;;;;;;;;;;;;;20.16;100.00;101150.13;5071324;28;20037;-70
2021/07/17 00:19:19;;;;;;;;;;;;;;;20.14;100.00;101145.81;5071534;28;19960;-70
2021/07/17 00:21:46;;;;;;;;;;;;;;;20.13;100.00;101155.97;5071309;28;19963;-70
2021/07/17 00:24:12;;;;;;;;;;;;;;;20.13;100.00;101149.59;5070143;28;19987;-71
2021/07/17 00:26:40;;;;;;;;;;;;;;;20.14;100.00;101160.44;5071339;28;20367;-71
2021/07/17 00:29:06;;;;;;;;;;;;;;;20.13;100.00;101160.63;5071027;28;19975;-70
2021/07/17 00:31:32;;;;;;;;;;;;;;;20.11;100.00;101162.69;5071256;28;19978;-70
2021/07/17 00:33:58;;;;;;;;;;;;;;;20.09;100.00;101153.75;5071460;28;19978;-70
2021/07/17 00:36:25;;;;;;;;;;;;;;;20.08;100.00;101163.88;5071212;28;19928;-71
2021/07/17 00:38:51;;;;;;;;;;;;;;;20.07;100.00;101162.19;5070171;28;19928;-71
2021/07/17 00:41:18;;;;;;;;;;;;;;;20.04;100.00;101166.16;5071587;28;19968;-71
2021/07/17 00:43:45;;;;;;;;;;;;;;;20.04;100.00;101162.53;5071278;28;19975;-71
2021/07/17 00:46:12;;;;;;;;;;;;;;;20.04;100.00;101170.78;5071072;28;19928;-70
2021/07/17 00:48:38;;;;;;;;;;;;;;;20.00;100.00;101161.16;5072281;28;19968;-71
2021/07/17 00:51:05;;;;;;;;;;;;;;;19.99;100.00;101170.47;5075236;28;19956;-71
2021/07/17 00:53:31;;;;;;;;;;;;;;;19.97;100.00;101169.78;5075014;28;20015;-71
2021/07/17 00:55:58;;;;;;;;;;;;;;;19.96;100.00;101173.56;5075144;28;19970;-71
2021/07/17 00:58:27;;;;;;;;;;;;;;;19.94;100.00;101178.41;5074695;28;19971;-71
2021/07/17 01:00:55;;;;;;;;;;;;;;;19.91;100.00;101179.63;5075134;28;19924;-70
2021/07/17 01:03:22;;;;;;;;;;;;;;;19.87;100.00;101187.38;5074670;28;20031;-70
2021/07/17 01:05:48;;;;;;;;;;;;;;;19.86;100.00;101182.88;5074598;28;19970;-71
2021/07/17 01:08:15;;;;;;;;;;;;;;;19.85;100.00;101185.81;5074597;28;20315;-71
2021/07/17 01:10:42;;;;;;;;;;;;;;;19.80;100.00;101180.81;5074871;28;19924;-70
2021/07/17 01:13:08;;;;;;;;;;;;;;;19.81;100.00;101184.44;5074527;28;20027;-71
2021/07/17 01:15:35;;;;;;;;;;;;;;;19.78;100.00;101182.03;5074493;28;19928;-71
2021/07/17 01:18:02;;;;;;;;;;;;;;;19.77;100.00;101174.78;5074464;28;20345;-71
2021/07/17 01:20:29;;;;;;;;;;;;;;;19.76;100.00;101179.41;5074166;28;19924;-71
2021/07/17 01:22:56;;;;;;;;;;;;;;;19.74;100.00;101178.75;5074084;28;19924;-71
2021/07/17 01:25:24;;;;;;;;;;;;;;;19.72;100.00;101173.41;5073913;28;19968;-70
2021/07/17 01:27:50;;;;;;;;;;;;;;;19.73;100.00;101179.78;5074258;28;19924;-71
2021/07/17 01:30:18;;;;;;;;;;;;;;;19.76;100.00;101173.91;5074185;28;20244;-70
2021/07/17 01:32:45;;;;;;;;;;;;;;;19.77;100.00;101169.28;5074304;28;20362;-71
2021/07/17 01:35:11;;;;;;;;;;;;;;;19.79;100.00;101168.06;5074142;28;19971;-71
2021/07/17 01:37:37;;;;;;;;;;;;;;;19.81;100.00;101170.69;5073726;28;19994;-70
2021/07/17 01:40:05;;;;;;;;;;;;;;;19.82;100.00;101173.25;5074367;28;20125;-71
2021/07/17 01:42:35;;;;;;;;;;;;;;;19.84;100.00;101171.19;5073794;28;19978;-71
2021/07/17 01:45:01;;;;;;;;;;;;;;;19.85;100.00;101170.16;5074296;28;19924;-71
2021/07/17 01:47:27;;;;;;;;;;;;;;;19.82;100.00;101165.00;5073687;28;19963;-71
2021/07/17 01:49:53;;;;;;;;;;;;;;;19.83;100.00;101166.72;5074072;28;19970;-71
2021/07/17 01:52:20;;;;;;;;;;;;;;;19.84;100.00;101165.69;5073902;28;19925;-71
2021/07/17 01:54:46;;;;;;;;;;;;;;;19.84;100.00;101162.06;5073913;28;20306;-71
2021/07/17 01:57:13;;;;;;;;;;;;;;;19.86;100.00;101160.00;5073777;28;19967;-71
2021/07/17 01:59:40;;;;;;;;;;;;;;;19.84;100.00;101157.44;5071480;28;19925;-71
2021/07/17 02:02:07;;;;;;;;;;;;;;;19.84;100.00;101162.06;5073586;28;20554;-70
2021/07/17 02:04:33;;;;;;;;;;;;;;;19.84;100.00;101164.81;5073452;28;20299;-71
2021/07/17 02:07:00;;;;;;;;;;;;;;;19.84;100.00;101162.94;5073517;28;19924;-71
2021/07/17 02:09:26;;;;;;;;;;;;;;;19.85;100.00;101164.63;5073504;28;19928;-71
2021/07/17 02:11:52;;;;;;;;;;;;;;;19.85;100.00;101159.13;5073760;28;19959;-71
2021/07/17 02:14:20;;;;;;;;;;;;;;;19.85;100.00;101156.38;5073422;28;19978;-71
2021/07/17 02:16:47;;;;;;;;;;;;;;;19.85;100.00;101153.63;5073097;28;20435;-71
2021/07/17 02:19:17;;;;;;;;;;;;;;;19.85;100.00;101152.78;5073525;28;19963;-71
2021/07/17 02:21:45;;;;;;;;;;;;;;;19.85;100.00;101150.88;5073560;28;20367;-71
2021/07/17 02:24:11;;;;;;;;;;;;;;;19.86;100.00;101140.72;5073521;28;20372;-71
2021/07/17 02:26:38;;;;;;;;;;;;;;;19.86;100.00;101143.47;5073276;28;20281;-71
2021/07/17 02:29:04;;;;;;;;;;;;;;;19.84;100.00;101135.41;5072046;28;19974;-71
2021/07/17 02:31:32;;;;;;;;;;;;;;;19.85;100.00;101141.75;5073362;28;19968;-71
2021/07/17 02:33:58;;;;;;;;;;;;;;;19.87;100.00;101136.94;5073164;28;19956;-71
2021/07/17 02:36:24;;;;;;;;;;;;;;;19.85;100.00;101145.34;5072749;28;20368;-72
2021/07/17 02:38:50;;;;;;;;;;;;;;;19.86;100.00;101144.31;5073125;28;19967;-71
2021/07/17 02:41:17;;;;;;;;;;;;;;;19.85;100.00;101147.25;5073050;28;19928;-71
2021/07/17 02:43:43;;;;;;;;;;;;;;;19.84;100.00;101151.03;5072842;28;19985;-71
2021/07/17 02:46:09;;;;;;;;;;;;;;;19.82;100.00;101145.72;5073131;28;20066;-71
2021/07/17 02:48:37;;;;;;;;;;;;;;;19.84;100.00;101143.66;5072749;28;19968;-71
2021/07/17 02:51:03;;;;;;;;;;;;;;;19.86;100.00;101146.22;5072467;28;19971;-71
2021/07/17 02:53:29;;;;;;;;;;;;;;;19.89;100.00;101149.47;5071990;28;19928;-71
2021/07/17 02:55:56;;;;;;;;;;;;;;;19.87;100.00;101148.81;5072607;28;19968;-71
2021/07/17 02:58:22;;;;;;;;;;;;;;;19.88;100.00;101147.78;5072417;28;19964;-71
2021/07/17 03:00:53;;;;;;;;;;;;;;;19.90;100.00;101151.19;5072615;28;19924;-71
2021/07/17 03:03:20;;;;;;;;;;;;;;;19.88;100.00;101152.41;5072352;28;19958;-71
2021/07/17 03:05:48;;;;;;;;;;;;;;;19.86;100.00;101149.84;5072361;28;19964;-71
2021/07/17 03:08:17;;;;;;;;;;;;;;;19.84;100.00;101160.19;5072229;28;19956;-71
2021/07/17 03:10:43;;;;;;;;;;;;;;;19.83;100.00;101160.34;5072298;28;19925;-72
2021/07/17 03:13:10;;;;;;;;;;;;;;;19.83;100.00;101165.84;5071970;28;19964;-71
2021/07/17 03:15:36;;;;;;;;;;;;;;;19.84;100.00;101168.44;5071188;28;19924;-71
2021/07/17 03:18:02;;;;;;;;;;;;;;;19.85;100.00;101167.38;5071803;28;19975;-71
2021/07/17 03:20:29;;;;;;;;;;;;;;;19.86;100.00;101162.75;5072350;28;19925;-71
2021/07/17 03:22:56;;;;;;;;;;;;;;;19.87;100.00;101161.72;5072278;28;19964;-71
2021/07/17 03:25:23;;;;;;;;;;;;;;;19.87;100.00;101157.06;5072161;28;20411;-71
2021/07/17 03:27:49;;;;;;;;;;;;;;;19.86;100.00;101155.34;5071896;28;19964;-72
2021/07/17 03:30:16;;;;;;;;;;;;;;;19.87;100.00;101159.81;5071730;28;19929;-71
2021/07/17 03:32:42;;;;;;;;;;;;;;;19.89;100.00;101154.97;5071978;28;19929;-72
2021/07/17 03:35:09;;;;;;;;;;;;;;;19.89;100.00;101163.25;5071845;28;20376;-72
2021/07/17 03:37:35;;;;;;;;;;;;;;;19.90;100.00;101162.22;5072065;28;19924;-71
2021/07/17 03:40:03;;;;;;;;;;;;;;;19.93;100.00;101161.00;5071892;28;19968;-72
2021/07/17 03:42:29;;;;;;;;;;;;;;;19.97;100.00;101167.03;5071673;28;19975;-72
2021/07/17 03:44:56;;;;;;;;;;;;;;;20.01;100.00;101163.75;5071837;28;19936;-72
2021/07/17 03:47:22;;;;;;;;;;;;;;;20.07;100.00;101173.22;5071712;28;19925;-72
2021/07/17 03:49:49;;;;;;;;;;;;;;;20.13;100.00;101175.25;5071555;28;19960;-72
2021/07/17 03:52:15;;;;;;;;;;;;;;;20.18;100.00;101174.72;5071784;28;20001;-72
2021/07/17 03:54:41;;;;;;;;;;;;;;;20.21;100.00;101171.63;5071780;28;19932;-71
2021/07/17 03:57:09;;;;;;;;;;;;;;;20.21;100.00;101177.97;5071602;28;19924;-72
2021/07/17 03:59:36;;;;;;;;;;;;;;;20.24;100.00;101182.28;5071713;28;20419;-71
2021/07/17 04:02:03;;;;;;;;;;;;;;;20.27;100.00;101189.31;5071750;28;19950;-72
2021/07/17 04:04:29;;;;;;;;;;;;;;;20.30;100.00;101180.72;5071696;28;20418;-71
2021/07/17 04:06:55;;;;;;;;;;;;;;;20.32;100.00;101178.63;5071390;28;20388;-72
2021/07/17 04:09:21;;;;;;;;;;;;;;;20.33;100.00;101183.13;5069931;28;19925;-71
2021/07/17 04:11:50;;;;;;;;;;;;;;;20.38;100.00;101187.03;5071599;28;19924;-71
2021/07/17 04:14:17;;;;;;;;;;;;;;;20.38;100.00;101184.28;5071437;28;19935;-71
2021/07/17 04:16:43;;;;;;;;;;;;;;;20.40;100.00;101179.47;5071622;28;20388;-71
2021/07/17 04:19:10;;;;;;;;;;;;;;;20.44;100.00;101184.63;5071419;28;19970;-72
2021/07/17 04:21:36;;;;;;;;;;;;;;;20.48;100.00;101181.31;5071693;28;19932;-72
2021/07/17 04:24:02;;;;;;;;;;;;;;;20.50;100.00;101195.78;5074915;28;20365;-71
2021/07/17 04:26:29;;;;;;;;;;;;;;;20.53;100.00;101180.78;5075048;28;20292;-71
2021/07/17 04:28:55;;;;;;;;;;;;;;;20.57;100.00;101173.88;5075676;28;20117;-70
2021/07/17 04:31:23;;;;;;;;;;;;;;;20.57;100.00;101174.72;5075377;28;19929;-71
2021/07/17 04:33:49;;;;;;;;;;;;;;;20.66;100.00;101177.47;5075518;28;20427;-71
2021/07/17 04:36:15;;;;;;;;;;;;;;;20.73;100.00;101172.97;5075250;28;19982;-71
2021/07/17 04:38:42;;;;;;;;;;;;;;;20.78;100.00;101176.03;5077189;28;20357;-71
2021/07/17 04:41:08;;;;;;;;;;;;;;;20.83;100.00;101170.84;5093854;28;19989;-71
2021/07/17 04:43:34;;;;;;;;;;;;;;;20.85;100.00;101165.13;5087636;28;20452;-72
2021/07/17 04:46:01;;;;;;;;;;;;;;;20.90;100.00;101171.81;5095405;28;19924;-72
2021/07/17 04:48:28;;;;;;;;;;;;;;;20.95;100.00;101175.94;5075273;28;19982;-72
2021/07/17 04:50:54;;;;;;;;;;;;;;;20.97;100.00;101177.47;5074358;28;19967;-72
2021/07/17 04:53:21;;;;;;;;;;;;;;;21.01;100.00;101175.22;5088892;28;19924;-73
2021/07/17 04:55:47;;;;;;;;;;;;;;;21.05;100.00;101176.56;5093783;28;19924;-72
2021/07/17 04:58:13;;;;;;;;;;;;;;;21.04;100.00;101172.94;5095152;28;19924;-72
2021/07/17 05:00:40;;;;;;;;;;;;;;;21.06;100.00;101184.66;5094311;28;19924;-72
2021/07/17 05:03:06;;;;;;;;;;;;;;;21.07;100.00;101185.50;5095166;28;19974;-72
2021/07/17 05:05:34;;;;;;;;;;;;;;;21.08;100.00;101181.72;5095155;28;20013;-71
2021/07/17 05:08:00;;;;;;;;;;;;;;;21.10;100.00;101190.69;5095007;28;20353;-71
2021/07/17 05:10:26;;;;;;;;;;;;;;;21.13;100.00;101201.34;5094949;28;19928;-71
2021/07/17 05:12:53;;;;;;;;;;;;;;;21.13;100.00;101195.81;5095147;28;19932;-71
2021/07/17 05:15:19;;;;;;;;;;;;;;;21.12;100.00;101196.84;5094898;28;19928;-71
2021/07/17 05:17:46;;;;;;;;;;;;;;;21.10;100.00;101198.06;5092994;28;19932;-71
2021/07/17 05:20:13;;;;;;;;;;;;;;;21.09;100.00;101200.00;5074526;28;19925;-71
2021/07/17 05:22:40;;;;;;;;;;;;;;;21.11;100.00;101203.44;5077741;28;19924;-71
2021/07/17 05:25:08;;;;;;;;;;;;;;;21.14;100.00;101203.06;5075479;28;19964;-70
2021/07/17 05:27:34;;;;;;;;;;;;;;;21.17;100.00;101197.16;5074566;28;19971;-71
2021/07/17 05:30:01;;;;;;;;;;;;;;;21.22;100.00;101193.88;5074636;28;20380;-72
2021/07/17 05:32:27;;;;;;;;;;;;;;;21.20;100.00;101204.22;5074619;28;20632;-70
2021/07/17 05:34:53;;;;;;;;;;;;;;;21.21;100.00;101198.53;5094280;28;19973;-71
2021/07/17 05:37:22;;;;;;;;;;;;;;;21.29;100.00;101199.53;5091313;28;19955;-71
2021/07/17 05:39:50;;;;;;;;;;;;;;;21.28;100.00;101198.66;5073984;28;19971;-71
2021/07/17 05:42:16;;;;;;;;;;;;;;;21.28;100.00;101195.88;5077854;28;19932;-71
2021/07/17 05:44:42;;;;;;;;;;;;;;;21.23;100.00;101198.34;5078029;28;19928;-71
2021/07/17 05:47:08;;;;;;;;;;;;;;;21.18;100.00;101204.41;5094302;28;19960;-70
2021/07/17 05:49:35;;;;;;;;;;;;;;;21.17;100.00;101204.59;5086918;28;20017;-71
2021/07/17 05:52:01;;;;;;;;;;;;;;;21.15;100.00;101206.69;5069593;28;19977;-70
2021/07/17 05:54:27;;;;;;;;;;;;;;;21.12;100.00;101209.81;5073674;28;19955;-70
2021/07/17 05:56:55;;;;;;;;;;;;;;;21.09;100.00;101205.50;5083146;28;19924;-71
2021/07/17 05:59:21;;;;;;;;;;;;;;;21.12;100.00;101205.13;5072938;28;19924;-72
2021/07/17 06:01:48;;;;;;;;;;;;;;;21.13;100.00;101203.25;5075162;28;19928;-71
2021/07/17 06:04:14;;;;;;;;;;;;;;;21.12;100.00;101207.06;5081423;28;20023;-72
2021/07/17 06:06:40;;;;;;;;;;;;;;;21.11;100.00;101206.19;5093652;28;19924;-71
2021/07/17 06:09:06;;;;;;;;;;;;;;;21.12;100.00;101205.13;5089446;28;19981;-71
2021/07/17 06:11:33;;;;;;;;;;;;;;;21.13;100.00;101206.88;5075278;28;19967;-71
2021/07/17 06:14:00;;;;;;;;;;;;;;;21.18;100.00;101212.69;5073456;28;19924;-71
2021/07/17 06:16:26;;;;;;;;;;;;;;;21.20;100.00;101213.34;5088297;28;19981;-69
2021/07/17 06:18:53;;;;;;;;;;;;;;;21.23;100.00;101215.78;5093643;28;19967;-71
2021/07/17 06:21:19;;;;;;;;;;;;;;;21.26;100.00;101219.19;5093745;28;19924;-71
2021/07/17 06:23:46;;;;;;;;;;;;;;;21.28;100.00;101219.88;5093750;28;19993;-71
2021/07/17 06:26:12;;;;;;;;;;;;;;;21.34;100.00;101225.53;5093438;28;20383;-71
2021/07/17 06:28:38;;;;;;;;;;;;;;;21.45;100.00;101221.47;5093031;28;19960;-72
2021/07/17 06:31:06;;;;;;;;;;;;;;;21.56;100.00;101223.81;5093561;28;19928;-70
2021/07/17 06:33:34;;;;;;;;;;;;;;;21.65;100.00;101215.50;5093254;28;19977;-71
2021/07/17 06:36:01;;;;;;;;;;;;;;;21.74;100.00;101214.38;5093368;28;19955;-71
2021/07/17 06:38:27;;;;;;;;;;;;;;;21.88;100.00;101218.19;5093016;28;19934;-71
2021/07/17 06:40:53;;;;;;;;;;;;;;;22.00;100.00;101213.91;5093553;28;19924;-72
2021/07/17 06:43:20;;;;;;;;;;;;;;;22.12;100.00;101222.63;5093179;28;20383;-71
2021/07/17 06:45:46;;;;;;;;;;;;;;;22.32;100.00;101220.16;5092323;28;19924;-72
2021/07/17 06:48:14;;;;;;;;;;;;;;;22.39;100.00;101215.63;5093021;28;19931;-72
2021/07/17 06:50:40;;;;;;;;;;;;;;;22.48;100.00;101216.38;5080033;28;20013;-72
2021/07/17 06:53:06;;;;;;;;;;;;;;;22.60;100.00;101216.75;5069410;28;19924;-73
2021/07/17 06:55:34;;;;;;;;;;;;;;;22.65;100.00;101214.25;5072230;28;19993;-72
2021/07/17 06:58:00;;;;;;;;;;;;;;;22.72;100.00;101214.34;5072223;28;20030;-72
2021/07/17 07:00:26;;;;;;;;;;;;;;;22.73;100.00;101225.22;5072028;28;19931;-71
2021/07/17 07:02:53;;;;;;;;;;;;;;;22.72;100.00;101217.94;5072415;28;19978;-72
2021/07/17 07:05:20;;;;;;;;;;;;;;;22.74;100.00;101226.06;5071024;28;20380;-72
2021/07/17 07:07:47;;;;;;;;;;;;;;;22.79;100.00;101223.56;5072666;28;19928;-72
2021/07/17 07:10:13;;;;;;;;;;;;;;;22.79;100.00;101223.56;5072564;28;19925;-73
2021/07/17 07:12:40;;;;;;;;;;;;;;;22.78;100.00;101215.47;5072446;28;19929;-72
2021/07/17 07:15:07;;;;;;;;;;;;;;;22.79;100.00;101223.56;5072475;28;19925;-71
2021/07/17 07:17:33;;;;;;;;;;;;;;;22.90;100.00;101224.97;5071026;28;19924;-71
2021/07/17 07:19:59;;;;;;;;;;;;;;;23.06;100.00;101223.88;5072352;28;19932;-71
2021/07/17 07:22:27;;;;;;;;;;;;;;;23.23;100.00;101230.09;5072176;28;19924;-70
2021/07/17 07:24:54;;;;;;;;;;;;;;;23.28;100.00;101216.50;5072141;28;19970;-71
2021/07/17 07:27:20;;;;;;;;;;;;;;;23.31;100.00;101220.81;5071841;28;19924;-71
2021/07/17 07:29:46;;;;;;;;;;;;;;;23.33;100.00;101214.00;5072193;28;19931;-71
2021/07/17 07:32:13;;;;;;;;;;;;;;;23.34;100.00;101225.94;5071913;28;19925;-71
2021/07/17 07:34:39;;;;;;;;;;;;;;;23.38;100.00;101221.72;5072136;28;19929;-72
2021/07/17 07:37:05;;;;;;;;;;;;;;;23.32;100.00;101211.44;5071961;28;19943;-72
2021/07/17 07:39:33;;;;;;;;;;;;;;;23.33;100.00;101224.22;5071830;28;19928;-72
2021/07/17 07:41:59;;;;;;;;;;;;;;;23.28;100.00;101221.19;5070528;28;19932;-71
2021/07/17 07:44:25;;;;;;;;;;;;;;;23.28;100.00;101232.28;5071490;28;20449;-71
2021/07/17 07:46:53;;;;;;;;;;;;;;;23.18;100.00;101225.16;5070092;28;19978;-72
2021/07/17 07:49:19;;;;;;;;;;;;;;;23.07;100.00;101232.00;5071275;28;19925;-71
2021/07/17 07:51:46;;;;;;;;;;;;;;;23.06;100.00;101229.44;5071760;28;19925;-71
2021/07/17 07:54:12;;;;;;;;;;;;;;;23.02;100.00;101230.88;5071582;28;19994;-71
2021/07/17 07:56:39;;;;;;;;;;;;;;;23.01;100.00;101237.44;5071549;28;20404;-71
2021/07/17 07:59:06;;;;;;;;;;;;;;;22.99;100.00;101236.81;5071643;28;19925;-71
2021/07/17 08:01:32;;;;;;;;;;;;;;;22.93;100.00;101237.56;5071206;28;20021;-72
2021/07/17 08:03:58;;;;;;;;;;;;;;;22.91;100.00;101248.84;5071594;28;19959;-71
2021/07/17 08:06:25;;;;;;;;;;;;;;;22.90;100.00;101239.69;5071456;28;19975;-72
2021/07/17 08:08:51;;;;;;;;;;;;;;;22.94;100.00;101244.84;5071271;28;19928;-71
2021/07/17 08:11:17;;;;;;;;;;;;;;;23.00;100.00;101247.69;5071470;28;19967;-72
2021/07/17 08:13:45;;;;;;;;;;;;;;;23.13;100.00;101243.34;5071051;28;19925;-71
2021/07/17 08:16:11;;;;;;;;;;;;;;;23.20;100.00;101236.88;5070263;28;20391;-72
2021/07/17 08:18:38;;;;;;;;;;;;;;;23.35;100.00;101255.34;5071114;28;19960;-71
2021/07/17 08:21:04;;;;;;;;;;;;;;;23.44;100.00;101247.75;5071448;28;19959;-72
2021/07/17 08:23:30;;;;;;;;;;;;;;;23.38;100.00;101247.50;5071180;28;19935;-72
2021/07/17 08:25:57;;;;;;;;;;;;;;;23.39;100.00;101249.22;5071349;28;19976;-72
2021/07/17 08:28:23;;;;;;;;;;;;;;;23.31;100.00;101245.72;5070901;28;19974;-71
2021/07/17 08:30:50;;;;;;;;;;;;;;;23.35;100.00;101244.28;5071517;28;19935;-70
2021/07/17 08:33:17;;;;;;;;;;;;;;;23.46;100.00;101252.03;5071328;28;20387;-71
2021/07/17 08:35:43;;;;;;;;;;;;;;;23.64;100.00;101257.13;5071298;28;19960;-71
2021/07/17 08:38:09;;;;;;;;;;;;;;;23.69;100.00;101239.91;5070919;28;19978;-71
2021/07/17 08:40:36;;;;;;;;;;;;;;;23.77;100.00;101256.41;5071327;28;19925;-71
2021/07/17 08:43:02;;;;;;;;;;;;;;;23.78;100.00;101249.78;5071278;28;19956;-71
2021/07/17 08:45:28;;;;;;;;;;;;;;;23.82;100.00;101251.09;5071250;28;19929;-71
2021/07/17 08:47:57;;;;;;;;;;;;;;;23.97;100.00;101241.88;5070863;28;20407;-71
2021/07/17 08:50:24;;;;;;;;;;;;;;;24.21;100.00;101246.09;5069992;28;20579;-72
2021/07/17 08:52:50;;;;;;;;;;;;;;;24.36;100.00;101248.78;5071136;28;19978;-72
2021/07/17 08:55:17;;;;;;;;;;;;;;;24.53;100.00;101252.06;5071296;28;19994;-71
2021/07/17 08:57:44;;;;;;;;;;;;;;;24.17;100.00;101237.34;5070876;28;20399;-71
2021/07/17 09:00:11;;;;;;;;;;;;;;;24.14;100.00;101248.00;5071173;28;19970;-71
2021/07/17 09:02:38;;;;;;;;;;;;;;;23.99;100.00;101245.31;5071082;28;19924;-72
2021/07/17 09:05:07;;;;;;;;;;;;;;;23.95;100.00;101258.72;5070549;28;19925;-72
2021/07/17 09:07:34;;;;;;;;;;;;;;;23.86;100.00;101259.88;5070886;28;19929;-72
2021/07/17 09:10:00;;;;;;;;;;;;;;;23.72;100.00;101258.91;5074042;28;19981;-71
2021/07/17 09:12:27;;;;;;;;;;;;;;;23.74;100.00;101267.88;5074743;28;19924;-72
2021/07/17 09:14:53;;;;;;;;;;;;;;;23.76;100.00;101263.00;5074785;28;19925;-71
2021/07/17 09:17:23;;;;;;;;;;;;;;;23.79;100.00;101257.06;5074138;28;19964;-71
2021/07/17 09:19:54;;;;;;;;;;;;;;;23.80;100.00;101256.00;5074739;28;19932;-70
2021/07/17 09:22:31;;;;;;;;;;;;;;;23.86;100.00;101246.88;5074331;28;20372;-71
2021/07/17 09:25:08;;;;;;;;;;;;;;;23.98;100.00;101254.69;5074519;28;19932;-70
2021/07/17 09:27:35;;;;;;;;;;;;;;;24.10;100.00;101250.31;5073001;28;20338;-70
2021/07/17 09:30:01;;;;;;;;;;;;;;;24.13;100.00;101240.72;5074370;28;20455;-70
2021/07/17 09:32:27;;;;;;;;;;;;;;;24.30;100.00;101252.38;5074164;28;19977;-70
2021/07/17 09:34:54;;;;;;;;;;;;;;;24.52;100.00;101240.13;5074332;28;20415;-70
2021/07/17 09:37:22;;;;;;;;;;;;;;;24.73;100.00;101244.75;5073800;28;19932;-70
2021/07/17 09:39:50;;;;;;;;;;;;;;;24.97;100.00;101233.31;5074049;28;19924;-70
2021/07/17 09:42:18;;;;;;;;;;;;;;;25.02;100.00;101228.00;5074077;28;19925;-71
2021/07/17 09:44:48;;;;;;;;;;;;;;;25.10;100.00;101230.59;5073917;28;20009;-71
2021/07/17 09:47:15;;;;;;;;;;;;;;;25.01;100.00;101231.84;5074083;28;19964;-69
2021/07/17 09:49:41;;;;;;;;;;;;;;;24.78;100.00;101237.72;5073963;28;19924;-70
2021/07/17 09:52:09;;;;;;;;;;;;;;;24.49;100.00;101234.13;5074344;28;19978;-70
2021/07/17 09:54:35;;;;;;;;;;;;;;;24.38;100.00;101241.09;5073906;28;19925;-70
2021/07/17 09:57:03;;;;;;;;;;;;;;;24.45;100.00;101243.91;5073568;28;19924;-69
2021/07/17 09:59:30;;;;;;;;;;;;;;;24.42;100.00;101249.88;5073943;28;20144;-70
2021/07/17 10:01:56;;;;;;;;;;;;;;;24.58;100.00;101235.66;5072673;28;19974;-70
2021/07/17 10:04:22;;;;;;;;;;;;;;;24.90;100.00;101234.13;5073641;28;19974;-70
2021/07/17 10:06:56;;;;;;;;;;;;;;;25.36;100.00;101223.41;5073688;28;19970;-69
2021/07/17 10:09:26;;;;;;;;;;;;;;;26.43;100.00;101205.84;5073712;28;19925;-71
2021/07/17 10:11:54;;;;;;;;;;;;;;;27.31;100.00;101190.44;5073731;28;19924;-70
2021/07/17 10:14:22;;;;;;;;;;;;;;;28.03;100.00;101192.91;5073466;28;19928;-70
2021/07/17 10:16:50;;;;;;;;;;;;;;;28.29;100.00;101185.31;5073476;28;19924;-71
2021/07/17 10:19:17;;;;;;;;;;;;;;;28.46;100.00;101197.59;5073425;28;19925;-71
2021/07/17 10:21:43;;;;;;;;;;;;;;;28.76;100.00;101184.81;5071449;28;19930;-71
2021/07/17 10:24:10;;;;;;;;;;;;;;;29.07;100.00;101175.34;5072066;28;19973;-71
2021/07/17 10:26:37;;;;;;;;;;;;;;;29.26;100.00;101178.94;5073378;28;19956;-70
2021/07/17 10:29:05;;;;;;;;;;;;;;;29.46;100.00;101167.44;5073206;28;19966;-71
2021/07/17 10:31:33;;;;;;;;;;;;;;;30.18;100.00;101165.56;5072901;28;19931;-70
2021/07/17 10:33:59;;;;;;;;;;;;;;;30.41;100.00;101167.47;5071686;28;19951;-70
2021/07/17 10:36:26;;;;;;;;;;;;;;;30.79;100.00;101163.25;5072961;28;19970;-70
2021/07/17 10:38:57;;;;;;;;;;;;;;;31.24;100.00;101149.53;5073220;28;19959;-70
2021/07/17 10:41:25;;;;;;;;;;;;;;;31.48;100.00;101148.28;5073049;28;20034;-71
2021/07/17 10:43:54;;;;;;;;;;;;;;;30.53;100.00;101142.25;5072281;28;22587;-70
2021/07/17 10:46:28;;;;;;;;;;;;;;;30.97;100.00;101136.94;5072687;28;19928;-70
2021/07/17 10:48:56;;;;;;;;;;;;;;;30.77;100.00;101142.19;5072479;28;19928;-70
2021/07/17 10:51:36;;;;;;;;;;;;;;;30.03;100.00;101135.28;5072702;28;20469;-70
2021/07/17 10:54:03;;;;;;;;;;;;;;;29.62;100.00;101126.72;5072903;28;19928;-70
2021/07/17 10:56:35;;;;;;;;;;;;;;;29.76;100.00;101127.38;5071302;28;20005;-70
2021/07/17 10:59:07;;;;;;;;;;;;;;;29.59;100.00;101115.22;5072120;28;19978;-70
2021/07/17 11:01:48;;;;;;;;;;;;;;;30.32;100.00;101121.34;5072525;28;19924;-70
2021/07/17 11:04:31;;;;;;;;;;;;;;;31.04;100.00;101117.22;5071880;28;19925;-70
2021/07/17 11:07:18;;;;;;;;;;;;;;;31.83;100.00;101121.94;5071525;28;19970;-71
2021/07/17 11:09:48;;;;;;;;;;;;;;;31.60;100.00;101117.34;5072849;28;19925;-70
2021/07/17 11:12:18;;;;;;;;;;;;;;;30.96;100.00;101117.59;5072499;28;20341;-70
2021/07/17 11:14:45;;;;;;;;;;;;;;;30.03;100.00;101122.13;5072334;28;19979;-70
2021/07/17 11:17:11;;;;;;;;;;;;;;;29.66;100.00;101127.13;5072161;28;20017;-70
2021/07/17 11:19:39;;;;;;;;;;;;;;;29.10;100.00;101109.75;5072301;28;19982;-71
2021/07/17 11:22:09;;;;;;;;;;;;;;;29.09;100.00;101110.81;5072225;28;19952;-70
2021/07/17 11:24:36;;;;;;;;;;;;;;;29.43;100.00;101106.44;5072004;28;20426;-70
2021/07/17 11:27:07;;;;;;;;;;;;;;;29.28;100.00;101114.44;5071757;28;19970;-70
2021/07/17 11:29:38;;;;;;;;;;;;;;;28.74;100.00;101120.78;5050944;28;20438;-70
2021/07/17 11:32:07;;;;;;;;;;;;;;;28.40;100.00;101120.38;5051764;28;19960;-70
2021/07/17 11:34:35;;;;;;;;;;;;;;;29.48;100.00;101102.91;5051958;28;20315;-70
2021/07/17 11:37:06;;;;;;;;;;;;;;;30.65;100.00;101111.41;5050690;28;20015;-70
2021/07/17 11:39:34;;;;;;;;;;;;;;;30.62;100.00;101111.91;5051856;28;19929;-70
2021/07/17 11:42:01;;;;;;;;;;;;;;;30.91;100.00;101100.69;5068812;28;19929;-72
2021/07/17 11:44:27;;;;;;;;;;;;;;;30.41;100.00;101105.03;5071709;28;19925;-73
2021/07/17 11:46:54;;;;;;;;;;;;;;;29.77;100.00;101103.03;5071628;28;19968;-72
2021/07/17 11:49:20;;;;;;;;;;;;;;;29.34;100.00;101105.06;5071618;28;19928;-72
2021/07/17 11:51:48;;;;;;;;;;;;;;;28.80;100.00;101108.69;5072107;28;20397;-72
2021/07/17 11:54:23;;;;;;;;;;;;;;;28.39;100.00;101113.06;5071926;28;19982;-72
2021/07/17 11:57:00;;;;;;;;;;;;;;;29.01;100.00;101110.09;5071739;28;19966;-72
2021/07/17 11:59:26;;;;;;;;;;;;;;;30.23;100.00;101098.50;5070868;28;19956;-72
2021/07/17 12:01:59;;;;;;;;;;;;;;;31.34;100.00;101100.09;5070074;28;19978;-72
2021/07/17 12:04:29;;;;;;;;;;;;;;;31.84;100.00;101100.31;5069803;28;19936;-72
2021/07/17 12:06:58;;;;;;;;;;;;;;;30.97;100.00;101108.09;5069863;28;19924;-72
2021/07/17 12:09:32;;;;;;;;;;;;;;;30.49;100.00;101105.53;5069858;28;19960;-72
2021/07/17 12:12:11;;;;;;;;;;;;;;;30.79;100.00;101101.59;5069893;28;20452;-72
2021/07/17 12:14:37;;;;;;;;;;;;;;;31.31;100.00;101097.78;5070055;28;19924;-72
2021/07/17 12:17:04;;;;;;;;;;;;;;;32.02;100.00;101099.19;5071466;28;19964;-72
2021/07/17 12:19:30;;;;;;;;;;;;;;;32.30;100.00;101102.94;5071316;28;19928;-72
2021/07/17 12:21:56;;;;;;;;;;;;;;;31.21;100.00;101106.91;5071606;28;19924;-72
2021/07/17 12:24:23;;;;;;;;;;;;;;;30.33;100.00;101104.31;5071330;28;19963;-72
2021/07/17 12:26:50;;;;;;;;;;;;;;;29.72;100.00;101098.19;5071371;28;19986;-72
2021/07/17 12:29:17;;;;;;;;;;;;;;;30.68;100.00;101094.09;5071292;28;19979;-72